createdAt,value
2023-02-24T00:02:06.344Z,64.30
2023-02-24T00:04:40.968Z,59.10
2023-02-24T00:07:12.929Z,58.40
2023-02-24T00:09:41.606Z,58.30
2023-02-24T00:12:15.790Z,61.20
2023-02-24T00:14:45.565Z,64.50
2023-02-24T00:17:14.892Z,68.80
2023-02-24T00:19:44.128Z,70.30
2023-02-24T00:22:13.089Z,51.30
2023-02-24T00:24:42.379Z,57.90
2023-02-24T00:27:13.560Z,73.10
2023-02-24T00:29:42.242Z,81.20
2023-02-24T00:32:13.601Z,86.70
2023-02-24T00:34:43.518Z,86.30
2023-02-24T00:37:12.405Z,77.30
2023-02-24T00:39:42.240Z,71.10
2023-02-24T00:42:12.054Z,78.60
2023-02-24T00:44:45.895Z,87.20
2023-02-24T00:47:17.112Z,74.60
2023-02-24T00:49:46.312Z,82.70
2023-02-24T00:52:20.643Z,81.10
2023-02-24T00:54:50.342Z,78.80
2023-02-24T00:57:23.223Z,79.90
2023-02-24T00:59:54.863Z,86.40
2023-02-24T01:02:23.095Z,85.30
2023-02-24T01:04:52.282Z,84.00
2023-02-24T01:07:20.617Z,84.40
2023-02-24T01:09:50.700Z,82.30
2023-02-24T01:12:38.166Z,86.90
2023-02-24T01:15:09.662Z,76.30
2023-02-24T01:17:38.101Z,75.00
2023-02-24T01:20:18.560Z,70.10
2023-02-24T01:22:50.747Z,78.70
2023-02-24T01:25:20.964Z,72.90
2023-02-24T01:27:49.691Z,62.90
2023-02-24T01:30:18.781Z,56.40
2023-02-24T01:32:47.919Z,58.80
2023-02-24T01:35:16.695Z,54.20
2023-02-24T01:37:45.862Z,57.90
2023-02-24T01:40:21.150Z,52.80
2023-02-24T01:42:50.595Z,55.60
2023-02-24T01:45:25.704Z,51.50
2023-02-24T01:47:58.882Z,51.40
2023-02-24T01:50:29.367Z,51.60
2023-02-24T01:53:03.787Z,48.90
2023-02-24T01:55:41.086Z,54.00
2023-02-24T01:58:17.542Z,51.60
2023-02-24T02:00:47.432Z,49.90
2023-02-24T02:03:35.645Z,51.90
2023-02-24T02:06:09.403Z,48.80
2023-02-24T02:08:42.522Z,48.80
2023-02-24T02:11:15.176Z,49.00
2023-02-24T02:13:45.446Z,49.60
2023-02-24T02:16:28.255Z,52.10
2023-02-24T02:19:30.808Z,48.90
2023-02-24T02:22:27.286Z,49.60
2023-02-24T02:25:07.468Z,49.30
2023-02-24T02:27:58.883Z,50.40
2023-02-24T02:30:48.168Z,47.90
2023-02-24T02:33:39.860Z,49.80
2023-02-24T02:36:12.720Z,52.30
2023-02-24T02:39:03.864Z,45.40
2023-02-24T02:41:59.506Z,51.20
2023-02-24T02:44:45.199Z,40.60
2023-02-24T02:49:52.233Z,36.50
2023-02-24T02:52:32.715Z,43.70
2023-02-24T02:55:18.820Z,41.50
2023-02-24T02:57:52.158Z,48.70
2023-02-24T03:00:30.066Z,41.80
2023-02-24T03:03:07.619Z,45.10
2023-02-24T03:05:47.249Z,44.80
2023-02-24T03:08:21.798Z,46.90
2023-02-24T03:10:53.648Z,48.50
2023-02-24T03:13:26.743Z,59.30
2023-02-24T03:16:00.247Z,57.50
2023-02-24T03:18:33.839Z,56.00
2023-02-24T03:21:29.232Z,47.80
2023-02-24T03:23:57.797Z,57.40
2023-02-24T03:26:53.022Z,51.10
2023-02-24T03:29:32.660Z,58.80
2023-02-24T03:32:09.407Z,68.10
2023-02-24T03:34:51.586Z,66.80
2023-02-24T03:37:25.832Z,45.70
2023-02-24T03:39:57.948Z,47.50
2023-02-24T03:42:33.980Z,51.90
2023-02-24T03:45:03.076Z,56.10
2023-02-24T03:47:33.285Z,63.10
2023-02-24T03:50:01.694Z,64.70
2023-02-24T03:52:53.656Z,71.00
2023-02-24T03:55:34.388Z,62.60
2023-02-24T03:58:05.885Z,61.70
2023-02-24T04:00:58.929Z,58.50
2023-02-24T04:04:00.548Z,63.80
2023-02-24T04:06:56.331Z,57.40
2023-02-24T04:10:03.170Z,61.70
2023-02-24T04:12:53.421Z,59.40
2023-02-24T04:15:29.715Z,57.90
2023-02-24T04:18:04.759Z,55.90
2023-02-24T04:20:40.117Z,60.40
2023-02-24T04:23:16.032Z,61.50
2023-02-24T04:25:50.977Z,56.30
2023-02-24T04:28:24.941Z,58.20
2023-02-24T04:30:58.722Z,60.50
2023-02-24T04:33:27.726Z,66.40
2023-02-24T04:35:55.977Z,61.50
2023-02-24T04:38:26.347Z,58.50
2023-02-24T04:40:55.071Z,61.50
2023-02-24T04:43:24.290Z,69.80
2023-02-24T04:45:52.811Z,62.50
2023-02-24T04:48:21.161Z,56.00
2023-02-24T04:50:55.731Z,58.30
2023-02-24T04:53:28.355Z,59.00
2023-02-24T04:55:56.859Z,78.40
2023-02-24T04:58:30.153Z,59.30
2023-02-24T05:00:58.913Z,56.00
2023-02-24T05:03:30.406Z,55.90
2023-02-24T05:06:00.558Z,52.60
2023-02-24T05:08:31.446Z,64.30
2023-02-24T05:11:04.202Z,70.10
2023-02-24T05:13:33.956Z,60.20
2023-02-24T05:16:08.622Z,58.40
2023-02-24T05:18:38.476Z,65.80
2023-02-24T05:21:33.197Z,59.60
2023-02-24T05:24:11.721Z,64.40
2023-02-24T05:26:43.365Z,60.20
2023-02-24T05:29:12.631Z,60.20
2023-02-24T05:31:41.548Z,60.20
2023-02-24T05:34:16.271Z,61.30
2023-02-24T05:36:46.157Z,70.90
2023-02-24T05:39:19.523Z,71.00
2023-02-24T05:41:50.023Z,64.50
2023-02-24T05:44:23.226Z,70.80
2023-02-24T05:46:58.484Z,67.20
2023-02-24T05:49:34.094Z,70.60
2023-02-24T05:52:08.293Z,69.40
2023-02-24T05:54:42.113Z,62.60
2023-02-24T05:57:17.722Z,57.20
2023-02-24T05:59:48.815Z,58.80
2023-02-24T06:02:27.777Z,71.10
2023-02-24T06:04:57.287Z,65.30
2023-02-24T06:07:29.831Z,66.90
2023-02-24T06:09:58.997Z,59.70
2023-02-24T06:12:30.644Z,54.80
2023-02-24T06:14:59.591Z,53.80
2023-02-24T06:17:28.788Z,51.90
2023-02-24T06:19:57.478Z,53.90
2023-02-24T06:22:27.097Z,49.80
2023-02-24T06:24:57.211Z,50.60
2023-02-24T06:27:26.241Z,60.20
2023-02-24T06:29:55.714Z,53.70
2023-02-24T06:32:26.711Z,54.60
2023-02-24T06:34:57.654Z,57.00
2023-02-24T06:37:27.107Z,54.90
2023-02-24T06:39:58.417Z,59.30
2023-02-24T06:42:26.748Z,66.00
2023-02-24T06:44:55.184Z,56.80
2023-02-24T06:47:23.481Z,55.30
2023-02-24T06:49:51.901Z,64.20
2023-02-24T06:52:20.784Z,59.70
2023-02-24T06:54:49.902Z,47.30
2023-02-24T06:57:18.537Z,51.90
2023-02-24T06:59:49.188Z,51.30
2023-02-24T07:02:18.492Z,58.40
2023-02-24T07:04:47.774Z,63.00
2023-02-24T07:07:17.740Z,65.50
2023-02-24T07:09:46.733Z,52.10
2023-02-24T07:12:21.227Z,59.80
2023-02-24T07:14:50.754Z,62.70
2023-02-24T07:17:19.622Z,53.40
2023-02-24T07:19:48.342Z,60.20
2023-02-24T07:22:17.822Z,52.90
2023-02-24T07:24:46.597Z,68.60
2023-02-24T07:27:23.305Z,75.10
2023-02-24T07:29:54.004Z,78.90
2023-02-24T07:32:23.283Z,76.20
2023-02-24T07:34:53.200Z,75.40
2023-02-24T07:37:23.862Z,78.50
2023-02-24T07:39:52.788Z,76.30
2023-02-24T07:42:22.863Z,60.60
2023-02-24T07:44:59.109Z,63.70
2023-02-24T07:47:27.740Z,57.90
2023-02-24T07:49:56.335Z,57.00
2023-02-24T07:52:24.877Z,77.60
2023-02-24T07:54:55.347Z,73.90
2023-02-24T07:57:25.403Z,62.40
2023-02-24T07:59:54.845Z,64.00
2023-02-24T08:02:24.779Z,61.60
2023-02-24T08:04:54.696Z,64.20
2023-02-24T08:07:25.951Z,56.60
2023-02-24T08:10:13.242Z,66.30
2023-02-24T08:12:45.728Z,68.00
2023-02-24T08:15:24.665Z,51.00
2023-02-24T08:17:59.935Z,62.50
2023-02-24T08:20:51.727Z,47.50
2023-02-24T08:23:20.911Z,45.70
2023-02-24T08:25:51.663Z,41.10
2023-02-24T08:28:21.479Z,40.40
2023-02-24T08:30:50.654Z,32.20
2023-02-24T08:33:22.305Z,34.60
2023-02-24T08:36:01.573Z,41.40
2023-02-24T08:38:42.467Z,35.70
2023-02-24T08:41:18.530Z,34.40
2023-02-24T08:43:49.143Z,41.40
2023-02-24T08:46:25.947Z,46.20
2023-02-24T08:49:00.824Z,35.50
2023-02-24T08:51:35.262Z,43.50
2023-02-24T08:54:15.881Z,37.00
2023-02-24T08:56:56.437Z,51.60
2023-02-24T08:59:43.727Z,49.80
2023-02-24T09:02:23.695Z,50.20
2023-02-24T09:05:05.321Z,51.40
2023-02-24T09:07:42.073Z,43.10
2023-02-24T09:10:20.765Z,53.20
2023-02-24T09:12:49.508Z,45.50
2023-02-24T09:15:18.443Z,47.00
2023-02-24T09:17:47.043Z,40.40
2023-02-24T09:20:27.704Z,44.00
2023-02-24T09:23:00.023Z,49.20
2023-02-24T09:26:06.913Z,39.30
2023-02-24T09:28:48.924Z,38.80
2023-02-24T09:31:17.851Z,47.20
2023-02-24T09:33:51.556Z,44.50
2023-02-24T09:36:28.340Z,50.20
2023-02-24T09:39:02.438Z,55.40
2023-02-24T09:41:56.224Z,48.30
2023-02-24T09:44:35.732Z,54.40
2023-02-24T09:47:31.519Z,56.10
2023-02-24T09:50:14.487Z,55.40
2023-02-24T09:52:43.846Z,53.10
2023-02-24T09:55:25.409Z,51.10
2023-02-24T09:58:17.114Z,55.70
2023-02-24T10:01:33.861Z,53.10
2023-02-24T10:04:36.965Z,63.70
2023-02-24T10:07:29.268Z,57.70
2023-02-24T10:10:25.878Z,64.30
2023-02-24T10:13:17.397Z,60.10
2023-02-24T10:15:57.846Z,60.70
2023-02-24T10:18:33.532Z,71.80
2023-02-24T10:21:46.738Z,63.20
2023-02-24T10:24:23.087Z,64.40
2023-02-24T10:27:24.296Z,55.70
2023-02-24T10:30:01.291Z,43.50
2023-02-24T10:32:48.541Z,50.60
2023-02-24T10:35:21.072Z,47.60
2023-02-24T10:37:49.543Z,47.30
2023-02-24T10:40:26.792Z,52.50
2023-02-24T10:43:11.399Z,57.50
2023-02-24T10:45:48.090Z,52.40
2023-02-24T10:48:40.790Z,54.80
2023-02-24T10:51:30.432Z,56.40
2023-02-24T10:54:34.405Z,51.60
2023-02-24T10:57:18.261Z,55.80
2023-02-24T11:00:18.531Z,53.80
2023-02-24T11:03:07.141Z,51.30
2023-02-24T11:06:04.545Z,48.30
2023-02-24T11:08:54.848Z,55.40
2023-02-24T11:11:52.506Z,45.40
2023-02-24T11:14:42.850Z,45.80
2023-02-24T11:17:27.372Z,53.00
2023-02-24T11:20:00.197Z,44.30
2023-02-24T11:22:34.489Z,46.40
2023-02-24T11:25:29.189Z,54.50
2023-02-24T11:27:58.220Z,50.40
2023-02-24T11:30:34.913Z,59.80
2023-02-24T11:33:12.724Z,45.90
2023-02-24T11:36:15.119Z,50.30
2023-02-24T11:39:02.814Z,44.90
2023-02-24T11:41:51.385Z,43.50
2023-02-24T11:45:04.551Z,49.50
2023-02-24T11:47:41.845Z,45.00
2023-02-24T11:50:50.423Z,43.80
2023-02-24T11:53:30.999Z,42.80
2023-02-24T11:56:12.162Z,37.70
2023-02-24T11:58:54.926Z,44.90
2023-02-24T12:01:26.899Z,47.80
2023-02-24T12:04:11.206Z,46.10
2023-02-24T12:06:51.956Z,42.50
2023-02-24T12:09:26.808Z,35.60
2023-02-24T12:12:16.850Z,39.90
2023-02-24T12:14:53.869Z,32.40
2023-02-24T12:17:37.088Z,28.70
2023-02-24T12:20:26.222Z,27.40
2023-02-24T12:23:23.644Z,29.80
2023-02-24T12:26:18.099Z,31.80
2023-02-24T12:29:18.811Z,30.60
2023-02-24T12:32:03.208Z,28.50
2023-02-24T12:35:10.996Z,32.20
2023-02-24T12:37:45.252Z,31.70
2023-02-24T12:40:16.869Z,21.50
2023-02-24T12:43:03.520Z,26.80
2023-02-24T12:45:52.363Z,30.30
2023-02-24T12:48:35.378Z,26.10
2023-02-24T12:51:22.318Z,30.90
2023-02-24T12:54:00.367Z,31.20
2023-02-24T12:56:33.487Z,30.40
2023-02-24T12:59:05.802Z,30.00
2023-02-24T13:01:57.427Z,28.50
2023-02-24T13:04:32.384Z,29.40
2023-02-24T13:07:31.925Z,29.60
2023-02-24T13:10:19.397Z,32.90
2023-02-24T13:13:13.039Z,30.60
2023-02-24T13:15:55.916Z,32.00
2023-02-24T13:18:36.595Z,33.50
2023-02-24T13:21:07.779Z,26.60
2023-02-24T13:23:40.896Z,38.70
2023-02-24T13:26:10.943Z,31.30
2023-02-24T13:28:39.802Z,27.50
2023-02-24T13:31:09.642Z,30.70
2023-02-24T13:33:40.692Z,27.00
2023-02-24T13:36:12.897Z,35.40
2023-02-24T13:39:41.651Z,38.10
2023-02-24T13:42:22.324Z,28.80
2023-02-24T13:45:17.542Z,54.50
2023-02-24T13:48:10.720Z,36.60
2023-02-24T13:51:03.899Z,47.00
2023-02-24T13:53:52.057Z,59.60
2023-02-24T13:57:08.192Z,36.30
2023-02-24T13:59:57.623Z,25.00
2023-02-24T14:02:30.053Z,32.20
2023-02-24T14:05:08.600Z,35.90
2023-02-24T14:07:39.855Z,40.00
2023-02-24T14:10:21.700Z,28.30
2023-02-24T14:12:51.876Z,29.30
2023-02-24T14:15:24.414Z,25.20
2023-02-24T14:18:02.501Z,49.00
2023-02-24T14:20:38.115Z,44.10
2023-02-24T14:23:22.633Z,40.50
2023-02-24T14:26:04.734Z,33.60
2023-02-24T14:28:42.263Z,37.50
2023-02-24T14:31:14.701Z,30.90
2023-02-24T14:33:45.733Z,26.10
2023-02-24T14:36:18.439Z,40.00
2023-02-24T14:38:46.830Z,37.80
2023-02-24T14:41:25.035Z,34.50
2023-02-24T14:43:54.536Z,28.40
2023-02-24T14:46:24.314Z,35.00
2023-02-24T14:48:56.624Z,31.40
2023-02-24T14:51:36.688Z,36.50
2023-02-24T14:54:16.141Z,32.80
2023-02-24T14:56:45.221Z,46.40
2023-02-24T14:59:35.443Z,29.80
2023-02-24T15:02:11.715Z,29.30
2023-02-24T15:04:43.884Z,36.50
2023-02-24T15:07:22.705Z,36.00
2023-02-24T15:09:52.473Z,32.00
2023-02-24T15:12:31.584Z,35.20
2023-02-24T15:15:05.411Z,31.10
2023-02-24T15:17:40.396Z,33.80
2023-02-24T15:20:25.398Z,36.70
2023-02-24T15:22:54.990Z,31.30
2023-02-24T15:25:41.896Z,32.30
2023-02-24T15:28:36.263Z,29.90
2023-02-24T15:31:16.108Z,35.10
2023-02-24T15:34:02.342Z,35.10
2023-02-24T15:36:36.452Z,36.30
2023-02-24T15:39:09.248Z,44.90
2023-02-24T15:41:41.179Z,44.40
2023-02-24T15:44:29.564Z,35.10
2023-02-24T15:47:12.883Z,37.00
2023-02-24T15:49:41.443Z,42.30
2023-02-24T15:52:11.292Z,47.80
2023-02-24T15:54:42.817Z,53.60
2023-02-24T15:57:15.223Z,54.80
2023-02-24T15:59:44.415Z,50.50
2023-02-24T16:02:20.037Z,55.90
2023-02-24T16:04:49.680Z,48.30
2023-02-24T16:07:22.544Z,55.10
2023-02-24T16:09:53.792Z,53.60
2023-02-24T16:12:47.846Z,40.60
2023-02-24T16:15:21.422Z,41.00
2023-02-24T16:17:51.719Z,44.30
2023-02-24T16:20:31.774Z,35.30
2023-02-24T16:23:05.267Z,46.60
2023-02-24T16:25:39.110Z,44.20
2023-02-24T16:28:08.619Z,47.30
2023-02-24T16:30:37.519Z,43.70
2023-02-24T16:33:06.253Z,44.80
2023-02-24T16:35:34.739Z,41.80
2023-02-24T16:38:03.531Z,33.50
2023-02-24T16:40:38.733Z,39.50
2023-02-24T16:43:07.378Z,40.20
2023-02-24T16:45:38.321Z,35.90
2023-02-24T16:48:14.384Z,45.50
2023-02-24T16:50:44.139Z,39.50
2023-02-24T16:53:16.368Z,43.00
2023-02-24T16:55:44.938Z,37.80
2023-02-24T16:58:14.393Z,56.00
2023-02-24T17:00:46.565Z,46.50
2023-02-24T17:03:24.789Z,43.60
2023-02-24T17:05:54.065Z,60.50
2023-02-24T17:08:23.639Z,51.90
2023-02-24T17:10:52.333Z,50.30
2023-02-24T17:13:22.387Z,52.80
2023-02-24T17:15:57.597Z,55.50
2023-02-24T17:18:26.841Z,46.00
2023-02-24T17:20:55.248Z,51.10
2023-02-24T17:23:23.960Z,42.00
2023-02-24T17:25:55.122Z,47.10
2023-02-24T17:28:24.529Z,45.90
2023-02-24T17:30:52.986Z,44.40
2023-02-24T17:33:22.220Z,62.30
2023-02-24T17:35:50.936Z,58.40
2023-02-24T17:38:22.450Z,58.10
2023-02-24T17:40:51.086Z,50.50
2023-02-24T17:43:19.566Z,50.80
2023-02-24T17:45:47.974Z,54.30
2023-02-24T17:48:16.654Z,45.20
2023-02-24T17:50:46.026Z,51.30
2023-02-24T17:53:15.482Z,66.80
2023-02-24T17:56:01.030Z,70.20
2023-02-24T17:58:30.790Z,72.80
2023-02-24T18:01:02.403Z,79.80
2023-02-24T18:03:31.377Z,69.80
2023-02-24T18:06:07.425Z,75.40
2023-02-24T18:08:40.880Z,79.90
2023-02-24T18:11:14.335Z,86.40
2023-02-24T18:13:43.653Z,89.50
2023-02-24T18:16:15.221Z,88.60
2023-02-24T18:18:43.276Z,86.30
2023-02-24T18:21:11.508Z,82.40
2023-02-24T18:23:40.971Z,74.50
2023-02-24T18:26:11.951Z,74.30
2023-02-24T18:28:40.229Z,70.20
2023-02-24T18:31:14.214Z,67.50
2023-02-24T18:33:43.342Z,63.00
2023-02-24T18:36:12.927Z,64.30
2023-02-24T18:38:41.800Z,60.60
2023-02-24T18:41:15.768Z,56.20
2023-02-24T18:43:47.189Z,56.50
2023-02-24T18:46:16.228Z,58.60
2023-02-24T18:48:46.098Z,61.30
2023-02-24T18:51:17.666Z,65.00
2023-02-24T18:53:47.312Z,66.20
2023-02-24T18:56:18.331Z,51.80
2023-02-24T18:58:49.652Z,134.10
2023-02-24T19:01:39.832Z,113.40
2023-02-24T19:04:09.139Z,88.20
2023-02-24T19:06:37.764Z,79.70
2023-02-24T19:09:11.308Z,62.50
2023-02-24T19:11:40.827Z,59.70
2023-02-24T19:14:12.162Z,68.50
2023-02-24T19:16:40.924Z,79.40
2023-02-24T19:19:13.973Z,65.80
2023-02-24T19:21:45.613Z,62.60
2023-02-24T19:24:14.515Z,62.80
2023-02-24T19:26:46.076Z,65.60
2023-02-24T19:29:14.955Z,60.90
2023-02-24T19:31:44.542Z,68.20
2023-02-24T19:34:14.356Z,61.90
2023-02-24T19:36:42.858Z,70.40
2023-02-24T19:39:14.618Z,77.80
2023-02-24T19:41:43.193Z,74.80
2023-02-24T19:44:11.247Z,72.70
2023-02-24T19:46:39.651Z,72.20
2023-02-24T19:49:07.742Z,76.80
2023-02-24T19:51:35.905Z,73.60
2023-02-24T19:54:06.120Z,74.70
2023-02-24T19:56:36.951Z,77.10
2023-02-24T19:59:07.934Z,72.00
2023-02-24T20:01:36.225Z,83.90
2023-02-24T20:04:05.736Z,69.60
2023-02-24T20:06:40.187Z,70.20
2023-02-24T20:09:21.536Z,62.70
2023-02-24T20:11:51.481Z,75.40
2023-02-24T20:14:20.378Z,61.70
2023-02-24T20:16:48.788Z,67.00
2023-02-24T20:19:18.370Z,69.90
2023-02-24T20:21:47.708Z,61.80
2023-02-24T20:24:17.602Z,68.00
2023-02-24T20:26:48.204Z,72.10
2023-02-24T20:29:18.176Z,70.00
2023-02-24T20:31:46.719Z,63.50
2023-02-24T20:34:16.876Z,61.40
2023-02-24T20:36:45.689Z,59.20
2023-02-24T20:39:13.747Z,61.30
2023-02-24T20:41:42.645Z,62.50
2023-02-24T20:44:11.783Z,61.90
2023-02-24T20:46:40.095Z,64.70
2023-02-24T20:49:11.236Z,65.70
2023-02-24T20:51:39.688Z,61.30
2023-02-24T20:54:10.059Z,61.10
2023-02-24T20:56:41.846Z,53.20
2023-02-24T20:59:16.724Z,54.70
2023-02-24T21:01:47.802Z,60.70
2023-02-24T21:04:19.154Z,54.80
2023-02-24T21:06:48.313Z,57.10
2023-02-24T21:09:17.006Z,59.80
2023-02-24T21:11:45.136Z,56.90
2023-02-24T21:14:17.456Z,64.10
2023-02-24T21:16:49.832Z,57.10
2023-02-24T21:19:20.286Z,56.80
2023-02-24T21:21:48.488Z,59.50
2023-02-24T21:24:16.857Z,71.90
2023-02-24T21:26:46.174Z,64.60
2023-02-24T21:29:14.642Z,63.50
2023-02-24T21:31:43.332Z,70.60
2023-02-24T21:34:12.341Z,77.40
2023-02-24T21:36:40.521Z,69.40
2023-02-24T21:39:09.048Z,72.70
2023-02-24T21:41:37.184Z,58.40
2023-02-24T21:44:05.369Z,64.10
2023-02-24T21:46:33.853Z,63.20
2023-02-24T21:49:02.123Z,63.10
2023-02-24T21:51:30.315Z,62.80
2023-02-24T21:53:58.591Z,58.40
2023-02-24T21:56:29.897Z,58.10
2023-02-24T21:59:00.915Z,54.10
2023-02-24T22:01:41.387Z,52.20
2023-02-24T22:04:15.450Z,59.70
2023-02-24T22:06:45.073Z,58.50
2023-02-24T22:09:19.858Z,57.20
2023-02-24T22:14:17.940Z,55.80
2023-02-24T22:16:46.208Z,70.10
2023-02-24T22:19:14.600Z,81.40
2023-02-24T22:21:43.150Z,94.50
2023-02-24T22:24:14.486Z,104.30
2023-02-24T22:26:43.695Z,104.80
2023-02-24T22:29:12.394Z,93.50
2023-02-24T22:31:43.748Z,90.60
2023-02-24T22:34:13.502Z,86.70
2023-02-24T22:36:42.142Z,85.50
2023-02-24T22:39:10.917Z,81.90
2023-02-24T22:41:39.275Z,79.60
2023-02-24T22:44:07.628Z,72.00
2023-02-24T22:46:38.344Z,85.80
2023-02-24T22:49:07.074Z,79.40
2023-02-24T22:51:35.225Z,63.10
2023-02-24T22:54:04.500Z,75.00
2023-02-24T22:56:32.893Z,78.40
2023-02-24T22:59:01.394Z,68.70
2023-02-24T23:01:32.995Z,64.80
2023-02-24T23:04:03.821Z,64.30
2023-02-24T23:06:33.032Z,62.30
2023-02-24T23:09:02.657Z,60.90
2023-02-24T23:11:34.080Z,62.30
2023-02-24T23:14:06.188Z,63.50
2023-02-24T23:16:37.225Z,65.00
2023-02-24T23:19:10.835Z,59.50
2023-02-24T23:21:42.442Z,62.50
2023-02-24T23:24:13.630Z,58.40
2023-02-24T23:26:47.763Z,57.50
2023-02-24T23:29:20.612Z,58.80
2023-02-24T23:31:48.942Z,56.80
2023-02-24T23:34:17.122Z,57.20
2023-02-24T23:36:47.178Z,64.30
2023-02-24T23:39:18.493Z,64.80
2023-02-24T23:41:46.635Z,68.90
2023-02-24T23:44:14.861Z,66.40
2023-02-24T23:46:43.195Z,74.30
2023-02-24T23:49:11.730Z,65.50
2023-02-24T23:51:48.051Z,67.90
2023-02-24T23:54:18.479Z,68.70
2023-02-24T23:56:46.921Z,66.40
2023-02-24T23:59:15.515Z,67.70
